sensor_id;sensor_type;location;lat;lon;timestamp;P1;durP1;ratioP1;P2;durP2;ratioP2
35530;SDS011;21637;53.352;-6.356;2024-03-02T00:00:05;14.10;;;5.03;;
35530;SDS011;21637;53.352;-6.356;2024-03-02T00:02:39;13.13;;;4.35;;
35530;SDS011;21637;53.352;-6.356;2024-03-02T00:05:06;9.98;;;4.32;;
35530;SDS011;21637;53.352;-6.356;2024-03-02T00:07:32;16.70;;;3.63;;
35530;SDS011;21637;53.352;-6.356;2024-03-02T00:09:58;12.43;;;3.95;;
35530;SDS011;21637;53.352;-6.356;2024-03-02T00:12:24;12.90;;;3.50;;
35530;SDS011;21637;53.352;-6.356;2024-03-02T00:14:51;13.90;;;3.83;;
35530;SDS011;21637;53.352;-6.356;2024-03-02T00:17:24;8.95;;;2.85;;
35530;SDS011;21637;53.352;-6.356;2024-03-02T00:19:53;11.60;;;3.60;;
35530;SDS011;21637;53.352;-6.356;2024-03-02T00:22:18;9.90;;;3.10;;
35530;SDS011;21637;53.352;-6.356;2024-03-02T00:24:44;10.77;;;3.90;;
35530;SDS011;21637;53.352;-6.356;2024-03-02T00:27:10;11.65;;;3.42;;
35530;SDS011;21637;53.352;-6.356;2024-03-02T00:29:40;12.68;;;8.00;;
35530;SDS011;21637;53.352;-6.356;2024-03-02T00:32:12;13.93;;;5.78;;
35530;SDS011;21637;53.352;-6.356;2024-03-02T00:34:41;9.20;;;5.72;;
35530;SDS011;21637;53.352;-6.356;2024-03-02T00:37:07;20.48;;;8.48;;
35530;SDS011;21637;53.352;-6.356;2024-03-02T00:39:33;14.13;;;5.72;;
35530;SDS011;21637;53.352;-6.356;2024-03-02T00:41:59;15.48;;;3.28;;
35530;SDS011;21637;53.352;-6.356;2024-03-02T00:44:25;9.73;;;2.70;;
35530;SDS011;21637;53.352;-6.356;2024-03-02T00:46:59;7.75;;;2.50;;
35530;SDS011;21637;53.352;-6.356;2024-03-02T00:49:25;8.93;;;3.22;;
35530;SDS011;21637;53.352;-6.356;2024-03-02T00:51:53;5.47;;;2.60;;
35530;SDS011;21637;53.352;-6.356;2024-03-02T00:54:20;13.20;;;3.05;;
35530;SDS011;21637;53.352;-6.356;2024-03-02T00:56:48;10.55;;;3.60;;
35530;SDS011;21637;53.352;-6.356;2024-03-02T00:59:14;11.70;;;3.08;;
35530;SDS011;21637;53.352;-6.356;2024-03-02T01:01:40;8.07;;;2.83;;
35530;SDS011;21637;53.352;-6.356;2024-03-02T01:04:07;9.50;;;3.40;;
35530;SDS011;21637;53.352;-6.356;2024-03-02T01:06:33;10.57;;;3.20;;
35530;SDS011;21637;53.352;-6.356;2024-03-02T01:08:59;10.60;;;2.72;;
35530;SDS011;21637;53.352;-6.356;2024-03-02T01:11:25;6.53;;;2.70;;
35530;SDS011;21637;53.352;-6.356;2024-03-02T01:13:51;8.68;;;2.72;;
35530;SDS011;21637;53.352;-6.356;2024-03-02T01:16:17;8.88;;;2.78;;
35530;SDS011;21637;53.352;-6.356;2024-03-02T01:18:43;7.65;;;2.22;;
35530;SDS011;21637;53.352;-6.356;2024-03-02T01:21:08;7.15;;;2.22;;
35530;SDS011;21637;53.352;-6.356;2024-03-02T01:23:34;6.53;;;2.45;;
35530;SDS011;21637;53.352;-6.356;2024-03-02T01:26:00;7.95;;;2.30;;
35530;SDS011;21637;53.352;-6.356;2024-03-02T01:28:26;5.00;;;2.28;;
35530;SDS011;21637;53.352;-6.356;2024-03-02T01:30:51;9.10;;;2.60;;
35530;SDS011;21637;53.352;-6.356;2024-03-02T01:33:17;14.85;;;2.83;;
35530;SDS011;21637;53.352;-6.356;2024-03-02T01:35:44;6.43;;;2.53;;
35530;SDS011;21637;53.352;-6.356;2024-03-02T01:38:10;7.32;;;2.30;;
35530;SDS011;21637;53.352;-6.356;2024-03-02T01:40:36;6.30;;;2.20;;
35530;SDS011;21637;53.352;-6.356;2024-03-02T01:43:06;8.07;;;2.20;;
35530;SDS011;21637;53.352;-6.356;2024-03-02T01:45:32;11.63;;;2.28;;
35530;SDS011;21637;53.352;-6.356;2024-03-02T01:47:58;5.47;;;2.03;;
35530;SDS011;21637;53.352;-6.356;2024-03-02T01:50:27;13.82;;;2.72;;
35530;SDS011;21637;53.352;-6.356;2024-03-02T01:52:57;9.52;;;2.22;;
35530;SDS011;21637;53.352;-6.356;2024-03-02T01:55:23;12.45;;;2.78;;
35530;SDS011;21637;53.352;-6.356;2024-03-02T01:57:49;7.18;;;2.33;;
35530;SDS011;21637;53.352;-6.356;2024-03-02T02:00:19;9.80;;;2.30;;
35530;SDS011;21637;53.352;-6.356;2024-03-02T02:02:46;7.75;;;2.25;;
35530;SDS011;21637;53.352;-6.356;2024-03-02T02:05:15;9.77;;;2.38;;
35530;SDS011;21637;53.352;-6.356;2024-03-02T02:07:42;4.30;;;2.05;;
35530;SDS011;21637;53.352;-6.356;2024-03-02T02:10:08;7.53;;;2.25;;
35530;SDS011;21637;53.352;-6.356;2024-03-02T02:12:37;7.90;;;2.80;;
35530;SDS011;21637;53.352;-6.356;2024-03-02T02:15:04;9.10;;;2.03;;
35530;SDS011;21637;53.352;-6.356;2024-03-02T02:17:49;9.02;;;2.15;;
35530;SDS011;21637;53.352;-6.356;2024-03-02T02:20:15;5.60;;;2.60;;
35530;SDS011;21637;53.352;-6.356;2024-03-02T02:22:51;7.97;;;3.10;;
35530;SDS011;21637;53.352;-6.356;2024-03-02T02:25:27;11.45;;;2.70;;
35530;SDS011;21637;53.352;-6.356;2024-03-02T02:27:54;7.68;;;2.40;;
35530;SDS011;21637;53.352;-6.356;2024-03-02T02:30:22;10.05;;;2.55;;
35530;SDS011;21637;53.352;-6.356;2024-03-02T02:32:50;9.77;;;2.30;;
35530;SDS011;21637;53.352;-6.356;2024-03-02T02:35:15;10.95;;;2.92;;
35530;SDS011;21637;53.352;-6.356;2024-03-02T02:37:41;6.72;;;2.38;;
35530;SDS011;21637;53.352;-6.356;2024-03-02T02:40:08;11.43;;;2.70;;
35530;SDS011;21637;53.352;-6.356;2024-03-02T02:42:34;9.52;;;2.90;;
35530;SDS011;21637;53.352;-6.356;2024-03-02T02:45:00;11.88;;;2.38;;
35530;SDS011;21637;53.352;-6.356;2024-03-02T02:47:26;6.30;;;2.08;;
35530;SDS011;21637;53.352;-6.356;2024-03-02T02:49:52;6.32;;;2.20;;
35530;SDS011;21637;53.352;-6.356;2024-03-02T02:52:18;15.98;;;2.80;;
35530;SDS011;21637;53.352;-6.356;2024-03-02T02:54:45;10.77;;;2.55;;
35530;SDS011;21637;53.352;-6.356;2024-03-02T02:57:11;12.27;;;2.22;;
35530;SDS011;21637;53.352;-6.356;2024-03-02T02:59:36;10.32;;;2.58;;
35530;SDS011;21637;53.352;-6.356;2024-03-02T03:02:02;15.18;;;2.60;;
35530;SDS011;21637;53.352;-6.356;2024-03-02T03:04:28;10.27;;;2.60;;
35530;SDS011;21637;53.352;-6.356;2024-03-02T03:06:54;10.60;;;2.72;;
35530;SDS011;21637;53.352;-6.356;2024-03-02T03:09:19;10.80;;;2.58;;
35530;SDS011;21637;53.352;-6.356;2024-03-02T03:11:45;12.75;;;2.80;;
35530;SDS011;21637;53.352;-6.356;2024-03-02T03:14:11;11.48;;;2.83;;
35530;SDS011;21637;53.352;-6.356;2024-03-02T03:16:37;11.55;;;2.33;;
35530;SDS011;21637;53.352;-6.356;2024-03-02T03:19:03;14.13;;;2.42;;
35530;SDS011;21637;53.352;-6.356;2024-03-02T03:21:29;12.32;;;2.10;;
35530;SDS011;21637;53.352;-6.356;2024-03-02T03:23:54;7.60;;;2.35;;
35530;SDS011;21637;53.352;-6.356;2024-03-02T03:26:20;13.10;;;2.33;;
35530;SDS011;21637;53.352;-6.356;2024-03-02T03:28:46;9.38;;;3.13;;
35530;SDS011;21637;53.352;-6.356;2024-03-02T03:31:11;20.42;;;3.13;;
35530;SDS011;21637;53.352;-6.356;2024-03-02T03:33:37;7.07;;;2.20;;
35530;SDS011;21637;53.352;-6.356;2024-03-02T03:36:03;10.77;;;2.08;;
35530;SDS011;21637;53.352;-6.356;2024-03-02T03:38:29;7.53;;;2.25;;
35530;SDS011;21637;53.352;-6.356;2024-03-02T03:40:55;13.02;;;2.40;;
35530;SDS011;21637;53.352;-6.356;2024-03-02T03:43:21;13.30;;;2.33;;
35530;SDS011;21637;53.352;-6.356;2024-03-02T03:45:47;11.43;;;2.90;;
35530;SDS011;21637;53.352;-6.356;2024-03-02T03:48:12;13.35;;;2.97;;
35530;SDS011;21637;53.352;-6.356;2024-03-02T03:50:38;15.27;;;2.45;;
35530;SDS011;21637;53.352;-6.356;2024-03-02T03:53:04;9.43;;;2.20;;
35530;SDS011;21637;53.352;-6.356;2024-03-02T03:55:30;11.63;;;2.50;;
35530;SDS011;21637;53.352;-6.356;2024-03-02T03:57:56;9.55;;;2.20;;
35530;SDS011;21637;53.352;-6.356;2024-03-02T04:00:21;10.40;;;3.00;;
35530;SDS011;21637;53.352;-6.356;2024-03-02T04:02:47;13.73;;;2.40;;
35530;SDS011;21637;53.352;-6.356;2024-03-02T04:05:13;7.30;;;2.60;;
35530;SDS011;21637;53.352;-6.356;2024-03-02T04:07:39;8.93;;;2.50;;
35530;SDS011;21637;53.352;-6.356;2024-03-02T04:10:08;9.95;;;2.42;;
35530;SDS011;21637;53.352;-6.356;2024-03-02T04:12:35;10.18;;;2.45;;
35530;SDS011;21637;53.352;-6.356;2024-03-02T04:15:02;17.23;;;2.47;;
35530;SDS011;21637;53.352;-6.356;2024-03-02T04:17:30;9.35;;;2.45;;
35530;SDS011;21637;53.352;-6.356;2024-03-02T04:19:57;11.30;;;2.72;;
35530;SDS011;21637;53.352;-6.356;2024-03-02T04:22:23;14.85;;;2.78;;
35530;SDS011;21637;53.352;-6.356;2024-03-02T04:24:49;10.43;;;2.13;;
35530;SDS011;21637;53.352;-6.356;2024-03-02T04:27:15;13.45;;;2.40;;
35530;SDS011;21637;53.352;-6.356;2024-03-02T04:29:40;11.73;;;3.03;;
35530;SDS011;21637;53.352;-6.356;2024-03-02T04:32:06;10.68;;;2.95;;
35530;SDS011;21637;53.352;-6.356;2024-03-02T04:34:32;9.95;;;2.47;;
35530;SDS011;21637;53.352;-6.356;2024-03-02T04:36:58;12.65;;;2.55;;
35530;SDS011;21637;53.352;-6.356;2024-03-02T04:39:23;12.10;;;2.13;;
35530;SDS011;21637;53.352;-6.356;2024-03-02T04:41:49;11.48;;;2.70;;
35530;SDS011;21637;53.352;-6.356;2024-03-02T04:44:15;8.25;;;2.33;;
35530;SDS011;21637;53.352;-6.356;2024-03-02T04:46:41;12.32;;;2.75;;
35530;SDS011;21637;53.352;-6.356;2024-03-02T04:49:07;10.95;;;2.38;;
35530;SDS011;21637;53.352;-6.356;2024-03-02T04:51:32;18.00;;;2.65;;
35530;SDS011;21637;53.352;-6.356;2024-03-02T04:53:59;13.48;;;2.85;;
35530;SDS011;21637;53.352;-6.356;2024-03-02T04:56:24;8.73;;;2.38;;
35530;SDS011;21637;53.352;-6.356;2024-03-02T04:58:56;15.30;;;2.50;;
35530;SDS011;21637;53.352;-6.356;2024-03-02T05:01:22;13.30;;;2.45;;
35530;SDS011;21637;53.352;-6.356;2024-03-02T05:03:47;19.40;;;2.78;;
35530;SDS011;21637;53.352;-6.356;2024-03-02T05:06:13;15.55;;;2.80;;
35530;SDS011;21637;53.352;-6.356;2024-03-02T05:08:39;12.40;;;2.50;;
35530;SDS011;21637;53.352;-6.356;2024-03-02T05:11:05;10.75;;;2.10;;
35530;SDS011;21637;53.352;-6.356;2024-03-02T05:14:06;13.65;;;2.75;;
35530;SDS011;21637;53.352;-6.356;2024-03-02T05:16:34;14.52;;;2.58;;
35530;SDS011;21637;53.352;-6.356;2024-03-02T05:19:01;12.43;;;2.40;;
35530;SDS011;21637;53.352;-6.356;2024-03-02T05:21:27;13.52;;;2.13;;
35530;SDS011;21637;53.352;-6.356;2024-03-02T05:23:53;13.40;;;2.40;;
35530;SDS011;21637;53.352;-6.356;2024-03-02T05:26:19;13.30;;;2.35;;
35530;SDS011;21637;53.352;-6.356;2024-03-02T05:28:45;11.77;;;2.67;;
35530;SDS011;21637;53.352;-6.356;2024-03-02T05:31:10;16.25;;;2.83;;
35530;SDS011;21637;53.352;-6.356;2024-03-02T05:33:39;11.30;;;2.47;;
35530;SDS011;21637;53.352;-6.356;2024-03-02T05:36:05;10.75;;;2.10;;
35530;SDS011;21637;53.352;-6.356;2024-03-02T05:38:32;9.75;;;2.30;;
35530;SDS011;21637;53.352;-6.356;2024-03-02T05:40:59;25.15;;;5.13;;
35530;SDS011;21637;53.352;-6.356;2024-03-02T05:43:25;12.13;;;2.47;;
35530;SDS011;21637;53.352;-6.356;2024-03-02T05:45:51;14.10;;;2.55;;
35530;SDS011;21637;53.352;-6.356;2024-03-02T05:48:17;11.88;;;2.80;;
35530;SDS011;21637;53.352;-6.356;2024-03-02T05:50:42;10.68;;;2.80;;
35530;SDS011;21637;53.352;-6.356;2024-03-02T05:53:08;20.55;;;2.83;;
35530;SDS011;21637;53.352;-6.356;2024-03-02T05:55:34;13.73;;;3.15;;
35530;SDS011;21637;53.352;-6.356;2024-03-02T05:57:59;11.35;;;2.60;;
35530;SDS011;21637;53.352;-6.356;2024-03-02T06:00:45;14.18;;;2.63;;
35530;SDS011;21637;53.352;-6.356;2024-03-02T06:03:11;8.15;;;2.05;;
35530;SDS011;21637;53.352;-6.356;2024-03-02T06:05:37;13.02;;;2.45;;
35530;SDS011;21637;53.352;-6.356;2024-03-02T06:08:03;10.85;;;2.15;;
35530;SDS011;21637;53.352;-6.356;2024-03-02T06:10:29;13.27;;;2.92;;
35530;SDS011;21637;53.352;-6.356;2024-03-02T06:12:54;9.23;;;2.55;;
35530;SDS011;21637;53.352;-6.356;2024-03-02T06:15:20;13.30;;;2.75;;
35530;SDS011;21637;53.352;-6.356;2024-03-02T06:17:46;11.50;;;2.67;;
35530;SDS011;21637;53.352;-6.356;2024-03-02T06:20:11;10.18;;;2.05;;
35530;SDS011;21637;53.352;-6.356;2024-03-02T06:22:37;3.83;;;1.90;;
35530;SDS011;21637;53.352;-6.356;2024-03-02T06:25:03;11.35;;;2.20;;
35530;SDS011;21637;53.352;-6.356;2024-03-02T06:27:29;14.30;;;2.17;;
35530;SDS011;21637;53.352;-6.356;2024-03-02T06:29:55;13.27;;;2.65;;
35530;SDS011;21637;53.352;-6.356;2024-03-02T06:32:20;13.55;;;2.60;;
35530;SDS011;21637;53.352;-6.356;2024-03-02T06:34:46;6.13;;;2.00;;
35530;SDS011;21637;53.352;-6.356;2024-03-02T06:37:12;11.82;;;3.22;;
35530;SDS011;21637;53.352;-6.356;2024-03-02T06:39:38;13.00;;;2.67;;
35530;SDS011;21637;53.352;-6.356;2024-03-02T06:42:03;8.02;;;2.53;;
35530;SDS011;21637;53.352;-6.356;2024-03-02T06:44:29;12.15;;;2.40;;
35530;SDS011;21637;53.352;-6.356;2024-03-02T06:46:55;8.18;;;2.08;;
35530;SDS011;21637;53.352;-6.356;2024-03-02T06:49:21;9.68;;;2.15;;
35530;SDS011;21637;53.352;-6.356;2024-03-02T06:51:46;9.45;;;1.85;;
35530;SDS011;21637;53.352;-6.356;2024-03-02T06:54:12;12.43;;;2.35;;
35530;SDS011;21637;53.352;-6.356;2024-03-02T06:56:38;8.27;;;2.33;;
35530;SDS011;21637;53.352;-6.356;2024-03-02T06:59:04;14.77;;;2.67;;
35530;SDS011;21637;53.352;-6.356;2024-03-02T07:01:29;7.28;;;2.00;;
35530;SDS011;21637;53.352;-6.356;2024-03-02T07:03:55;10.40;;;2.20;;
35530;SDS011;21637;53.352;-6.356;2024-03-02T07:06:21;8.15;;;2.10;;
35530;SDS011;21637;53.352;-6.356;2024-03-02T07:08:46;14.15;;;2.50;;
35530;SDS011;21637;53.352;-6.356;2024-03-02T07:11:12;12.05;;;2.90;;
35530;SDS011;21637;53.352;-6.356;2024-03-02T07:13:38;11.63;;;2.22;;
35530;SDS011;21637;53.352;-6.356;2024-03-02T07:16:04;7.53;;;2.55;;
35530;SDS011;21637;53.352;-6.356;2024-03-02T07:18:53;15.48;;;3.20;;
35530;SDS011;21637;53.352;-6.356;2024-03-02T07:21:21;6.63;;;2.42;;
35530;SDS011;21637;53.352;-6.356;2024-03-02T07:23:47;8.05;;;2.72;;
35530;SDS011;21637;53.352;-6.356;2024-03-02T07:26:13;14.48;;;3.30;;
35530;SDS011;21637;53.352;-6.356;2024-03-02T07:28:46;7.43;;;2.67;;
35530;SDS011;21637;53.352;-6.356;2024-03-02T07:31:13;8.40;;;3.42;;
35530;SDS011;21637;53.352;-6.356;2024-03-02T07:33:39;6.68;;;2.40;;
35530;SDS011;21637;53.352;-6.356;2024-03-02T07:36:04;9.80;;;2.40;;
35530;SDS011;21637;53.352;-6.356;2024-03-02T07:38:31;13.48;;;3.08;;
35530;SDS011;21637;53.352;-6.356;2024-03-02T07:40:59;12.60;;;2.88;;
35530;SDS011;21637;53.352;-6.356;2024-03-02T07:43:25;19.23;;;2.88;;
35530;SDS011;21637;53.352;-6.356;2024-03-02T07:45:51;4.32;;;2.30;;
35530;SDS011;21637;53.352;-6.356;2024-03-02T07:48:17;6.38;;;2.63;;
35530;SDS011;21637;53.352;-6.356;2024-03-02T07:50:42;9.50;;;2.20;;
35530;SDS011;21637;53.352;-6.356;2024-03-02T07:53:08;7.82;;;2.65;;
35530;SDS011;21637;53.352;-6.356;2024-03-02T07:55:34;4.47;;;2.03;;
35530;SDS011;21637;53.352;-6.356;2024-03-02T07:58:00;8.05;;;2.20;;
35530;SDS011;21637;53.352;-6.356;2024-03-02T08:00:26;7.30;;;2.25;;
35530;SDS011;21637;53.352;-6.356;2024-03-02T08:02:52;8.88;;;2.53;;
35530;SDS011;21637;53.352;-6.356;2024-03-02T08:05:19;9.68;;;2.15;;
35530;SDS011;21637;53.352;-6.356;2024-03-02T08:07:45;9.63;;;2.35;;
35530;SDS011;21637;53.352;-6.356;2024-03-02T08:10:11;9.50;;;1.65;;
35530;SDS011;21637;53.352;-6.356;2024-03-02T08:12:37;3.13;;;1.30;;
35530;SDS011;21637;53.352;-6.356;2024-03-02T08:15:03;6.55;;;1.60;;
35530;SDS011;21637;53.352;-6.356;2024-03-02T08:17:29;5.82;;;1.70;;
35530;SDS011;21637;53.352;-6.356;2024-03-02T08:19:55;8.88;;;1.85;;
35530;SDS011;21637;53.352;-6.356;2024-03-02T08:22:22;2.60;;;1.20;;
35530;SDS011;21637;53.352;-6.356;2024-03-02T08:24:50;3.88;;;1.20;;
35530;SDS011;21637;53.352;-6.356;2024-03-02T08:27:16;5.35;;;1.30;;
35530;SDS011;21637;53.352;-6.356;2024-03-02T08:29:42;5.20;;;1.33;;
35530;SDS011;21637;53.352;-6.356;2024-03-02T08:32:07;3.60;;;1.52;;
35530;SDS011;21637;53.352;-6.356;2024-03-02T08:34:33;4.90;;;1.20;;
35530;SDS011;21637;53.352;-6.356;2024-03-02T08:37:00;9.35;;;1.30;;
35530;SDS011;21637;53.352;-6.356;2024-03-02T08:39:27;6.22;;;1.48;;
35530;SDS011;21637;53.352;-6.356;2024-03-02T08:41:53;5.72;;;0.98;;
35530;SDS011;21637;53.352;-6.356;2024-03-02T08:44:19;6.75;;;1.60;;
35530;SDS011;21637;53.352;-6.356;2024-03-02T08:46:45;2.83;;;1.17;;
35530;SDS011;21637;53.352;-6.356;2024-03-02T08:49:11;3.35;;;1.15;;
35530;SDS011;21637;53.352;-6.356;2024-03-02T08:51:37;4.65;;;1.02;;
35530;SDS011;21637;53.352;-6.356;2024-03-02T08:54:03;10.88;;;1.30;;
35530;SDS011;21637;53.352;-6.356;2024-03-02T08:56:29;7.88;;;1.30;;
35530;SDS011;21637;53.352;-6.356;2024-03-02T08:58:56;10.25;;;1.88;;
35530;SDS011;21637;53.352;-6.356;2024-03-02T09:01:21;3.33;;;1.20;;
35530;SDS011;21637;53.352;-6.356;2024-03-02T09:03:48;7.22;;;1.55;;
35530;SDS011;21637;53.352;-6.356;2024-03-02T09:06:16;3.63;;;1.20;;
35530;SDS011;21637;53.352;-6.356;2024-03-02T09:08:43;3.92;;;1.05;;
35530;SDS011;21637;53.352;-6.356;2024-03-02T09:11:09;4.57;;;1.08;;
35530;SDS011;21637;53.352;-6.356;2024-03-02T09:13:38;3.35;;;0.90;;
35530;SDS011;21637;53.352;-6.356;2024-03-02T09:16:04;4.50;;;1.00;;
35530;SDS011;21637;53.352;-6.356;2024-03-02T09:18:30;4.53;;;0.98;;
35530;SDS011;21637;53.352;-6.356;2024-03-02T09:20:56;4.85;;;1.10;;
35530;SDS011;21637;53.352;-6.356;2024-03-02T09:23:22;5.65;;;1.38;;
35530;SDS011;21637;53.352;-6.356;2024-03-02T09:25:47;10.77;;;1.70;;
35530;SDS011;21637;53.352;-6.356;2024-03-02T09:28:15;6.47;;;1.25;;
35530;SDS011;21637;53.352;-6.356;2024-03-02T09:30:41;3.67;;;1.35;;
35530;SDS011;21637;53.352;-6.356;2024-03-02T09:33:06;6.65;;;1.27;;
35530;SDS011;21637;53.352;-6.356;2024-03-02T09:35:32;6.63;;;1.00;;
35530;SDS011;21637;53.352;-6.356;2024-03-02T09:37:58;4.20;;;1.17;;
35530;SDS011;21637;53.352;-6.356;2024-03-02T09:40:24;2.00;;;0.82;;
35530;SDS011;21637;53.352;-6.356;2024-03-02T09:42:50;2.83;;;1.20;;
35530;SDS011;21637;53.352;-6.356;2024-03-02T09:45:22;12.77;;;1.80;;
35530;SDS011;21637;53.352;-6.356;2024-03-02T09:47:49;4.22;;;1.13;;
35530;SDS011;21637;53.352;-6.356;2024-03-02T09:50:15;5.32;;;1.30;;
35530;SDS011;21637;53.352;-6.356;2024-03-02T09:52:42;4.95;;;1.35;;
35530;SDS011;21637;53.352;-6.356;2024-03-02T09:55:08;5.25;;;1.35;;
35530;SDS011;21637;53.352;-6.356;2024-03-02T09:57:34;5.75;;;1.67;;
35530;SDS011;21637;53.352;-6.356;2024-03-02T10:00:00;6.55;;;2.13;;
35530;SDS011;21637;53.352;-6.356;2024-03-02T10:02:27;10.68;;;3.47;;
35530;SDS011;21637;53.352;-6.356;2024-03-02T10:04:53;10.80;;;2.03;;
35530;SDS011;21637;53.352;-6.356;2024-03-02T10:07:18;8.55;;;2.03;;
35530;SDS011;21637;53.352;-6.356;2024-03-02T10:09:45;4.20;;;1.55;;
35530;SDS011;21637;53.352;-6.356;2024-03-02T10:12:13;8.15;;;1.58;;
35530;SDS011;21637;53.352;-6.356;2024-03-02T10:14:43;5.63;;;1.60;;
35530;SDS011;21637;53.352;-6.356;2024-03-02T10:17:13;8.93;;;1.45;;
35530;SDS011;21637;53.352;-6.356;2024-03-02T10:19:40;6.45;;;1.50;;
35530;SDS011;21637;53.352;-6.356;2024-03-02T10:22:07;6.43;;;1.30;;
35530;SDS011;21637;53.352;-6.356;2024-03-02T10:24:40;5.50;;;1.30;;
35530;SDS011;21637;53.352;-6.356;2024-03-02T10:27:09;3.35;;;1.13;;
35530;SDS011;21637;53.352;-6.356;2024-03-02T10:29:40;6.03;;;1.27;;
35530;SDS011;21637;53.352;-6.356;2024-03-02T10:32:09;3.92;;;1.13;;
35530;SDS011;21637;53.352;-6.356;2024-03-02T10:34:36;3.33;;;1.13;;
35530;SDS011;21637;53.352;-6.356;2024-03-02T10:37:05;4.32;;;1.15;;
35530;SDS011;21637;53.352;-6.356;2024-03-02T10:39:32;4.25;;;1.13;;
35530;SDS011;21637;53.352;-6.356;2024-03-02T10:42:07;6.95;;;1.23;;
35530;SDS011;21637;53.352;-6.356;2024-03-02T10:44:33;4.57;;;1.42;;
35530;SDS011;21637;53.352;-6.356;2024-03-02T10:47:00;6.15;;;1.10;;
35530;SDS011;21637;53.352;-6.356;2024-03-02T10:49:30;1.98;;;0.90;;
35530;SDS011;21637;53.352;-6.356;2024-03-02T10:52:00;5.15;;;1.40;;
35530;SDS011;21637;53.352;-6.356;2024-03-02T10:54:26;4.63;;;1.45;;
35530;SDS011;21637;53.352;-6.356;2024-03-02T10:56:55;3.20;;;0.65;;
35530;SDS011;21637;53.352;-6.356;2024-03-02T10:59:28;3.92;;;1.17;;
35530;SDS011;21637;53.352;-6.356;2024-03-02T11:01:56;4.25;;;1.10;;
35530;SDS011;21637;53.352;-6.356;2024-03-02T11:04:27;3.38;;;0.90;;
35530;SDS011;21637;53.352;-6.356;2024-03-02T11:09:29;3.22;;;0.90;;
35530;SDS011;21637;53.352;-6.356;2024-03-02T11:14:48;2.55;;;1.15;;
35530;SDS011;21637;53.352;-6.356;2024-03-02T11:17:19;4.00;;;1.00;;
35530;SDS011;21637;53.352;-6.356;2024-03-02T11:19:45;3.35;;;0.90;;
35530;SDS011;21637;53.352;-6.356;2024-03-02T11:22:13;2.83;;;0.85;;
35530;SDS011;21637;53.352;-6.356;2024-03-02T11:24:47;3.42;;;1.13;;
35530;SDS011;21637;53.352;-6.356;2024-03-02T11:27:14;2.88;;;1.20;;
35530;SDS011;21637;53.352;-6.356;2024-03-02T11:29:59;7.47;;;1.15;;
35530;SDS011;21637;53.352;-6.356;2024-03-02T11:32:25;2.33;;;0.80;;
35530;SDS011;21637;53.352;-6.356;2024-03-02T11:34:51;1.33;;;0.88;;
35530;SDS011;21637;53.352;-6.356;2024-03-02T11:37:20;2.80;;;0.95;;
35530;SDS011;21637;53.352;-6.356;2024-03-02T11:39:46;1.48;;;0.63;;
35530;SDS011;21637;53.352;-6.356;2024-03-02T11:42:14;5.32;;;0.90;;
35530;SDS011;21637;53.352;-6.356;2024-03-02T11:44:50;3.83;;;1.13;;
35530;SDS011;21637;53.352;-6.356;2024-03-02T11:47:16;2.00;;;1.00;;
35530;SDS011;21637;53.352;-6.356;2024-03-02T11:49:50;3.30;;;0.98;;
35530;SDS011;21637;53.352;-6.356;2024-03-02T11:52:19;3.00;;;1.02;;
35530;SDS011;21637;53.352;-6.356;2024-03-02T11:54:47;1.67;;;0.80;;
35530;SDS011;21637;53.352;-6.356;2024-03-02T11:57:20;2.40;;;0.85;;
35530;SDS011;21637;53.352;-6.356;2024-03-02T11:59:47;1.13;;;0.90;;
35530;SDS011;21637;53.352;-6.356;2024-03-02T12:02:23;2.45;;;0.77;;
35530;SDS011;21637;53.352;-6.356;2024-03-02T12:04:49;2.22;;;0.70;;
35530;SDS011;21637;53.352;-6.356;2024-03-02T12:07:22;5.07;;;0.77;;
35530;SDS011;21637;53.352;-6.356;2024-03-02T12:10:00;3.60;;;0.70;;
35530;SDS011;21637;53.352;-6.356;2024-03-02T12:12:28;2.42;;;0.57;;
35530;SDS011;21637;53.352;-6.356;2024-03-02T12:14:53;8.98;;;1.13;;
35530;SDS011;21637;53.352;-6.356;2024-03-02T12:17:21;1.83;;;0.55;;
35530;SDS011;21637;53.352;-6.356;2024-03-02T12:19:47;2.10;;;0.60;;
35530;SDS011;21637;53.352;-6.356;2024-03-02T12:22:14;3.00;;;0.93;;
35530;SDS011;21637;53.352;-6.356;2024-03-02T12:24:41;3.45;;;0.68;;
35530;SDS011;21637;53.352;-6.356;2024-03-02T12:27:07;2.58;;;0.47;;
35530;SDS011;21637;53.352;-6.356;2024-03-02T12:29:33;1.77;;;0.80;;
35530;SDS011;21637;53.352;-6.356;2024-03-02T12:31:59;2.15;;;0.60;;
35530;SDS011;21637;53.352;-6.356;2024-03-02T12:34:27;0.95;;;0.40;;
35530;SDS011;21637;53.352;-6.356;2024-03-02T12:36:53;0.47;;;0.40;;
35530;SDS011;21637;53.352;-6.356;2024-03-02T12:39:19;0.63;;;0.43;;
35530;SDS011;21637;53.352;-6.356;2024-03-02T12:41:46;0.85;;;0.60;;
35530;SDS011;21637;53.352;-6.356;2024-03-02T12:44:13;1.48;;;0.63;;
35530;SDS011;21637;53.352;-6.356;2024-03-02T12:46:39;1.52;;;0.45;;
35530;SDS011;21637;53.352;-6.356;2024-03-02T12:49:07;1.55;;;0.70;;
35530;SDS011;21637;53.352;-6.356;2024-03-02T12:51:35;1.67;;;0.60;;
35530;SDS011;21637;53.352;-6.356;2024-03-02T12:54:02;1.20;;;0.73;;
35530;SDS011;21637;53.352;-6.356;2024-03-02T12:56:28;2.28;;;0.68;;
35530;SDS011;21637;53.352;-6.356;2024-03-02T12:58:55;0.90;;;0.70;;
35530;SDS011;21637;53.352;-6.356;2024-03-02T13:01:21;1.98;;;0.70;;
35530;SDS011;21637;53.352;-6.356;2024-03-02T13:03:50;2.08;;;0.60;;
35530;SDS011;21637;53.352;-6.356;2024-03-02T13:06:18;1.42;;;0.60;;
35530;SDS011;21637;53.352;-6.356;2024-03-02T13:08:45;1.30;;;1.00;;
35530;SDS011;21637;53.352;-6.356;2024-03-02T13:11:12;0.90;;;0.40;;
35530;SDS011;21637;53.352;-6.356;2024-03-02T13:13:41;1.13;;;0.50;;
35530;SDS011;21637;53.352;-6.356;2024-03-02T13:16:08;0.63;;;0.47;;
35530;SDS011;21637;53.352;-6.356;2024-03-02T13:18:35;3.80;;;0.93;;
35530;SDS011;21637;53.352;-6.356;2024-03-02T13:21:01;1.75;;;0.70;;
35530;SDS011;21637;53.352;-6.356;2024-03-02T13:23:27;1.52;;;0.57;;
35530;SDS011;21637;53.352;-6.356;2024-03-02T13:25:55;1.58;;;0.40;;
35530;SDS011;21637;53.352;-6.356;2024-03-02T13:28:23;1.58;;;0.55;;
35530;SDS011;21637;53.352;-6.356;2024-03-02T13:30:49;0.50;;;0.50;;
35530;SDS011;21637;53.352;-6.356;2024-03-02T13:33:15;2.17;;;0.40;;
35530;SDS011;21637;53.352;-6.356;2024-03-02T13:35:40;2.20;;;0.77;;
35530;SDS011;21637;53.352;-6.356;2024-03-02T13:38:06;2.03;;;0.60;;
35530;SDS011;21637;53.352;-6.356;2024-03-02T13:40:32;1.45;;;0.60;;
35530;SDS011;21637;53.352;-6.356;2024-03-02T13:43:01;1.70;;;0.60;;
35530;SDS011;21637;53.352;-6.356;2024-03-02T13:45:28;1.17;;;0.70;;
35530;SDS011;21637;53.352;-6.356;2024-03-02T13:47:53;0.68;;;0.45;;
35530;SDS011;21637;53.352;-6.356;2024-03-02T13:50:19;2.05;;;0.80;;
35530;SDS011;21637;53.352;-6.356;2024-03-02T13:52:45;4.93;;;0.70;;
35530;SDS011;21637;53.352;-6.356;2024-03-02T13:55:11;3.50;;;0.82;;
35530;SDS011;21637;53.352;-6.356;2024-03-02T13:57:37;1.25;;;0.85;;
35530;SDS011;21637;53.352;-6.356;2024-03-02T14:00:03;0.70;;;0.57;;
35530;SDS011;21637;53.352;-6.356;2024-03-02T14:02:35;0.85;;;0.70;;
35530;SDS011;21637;53.352;-6.356;2024-03-02T14:05:01;3.17;;;0.70;;
35530;SDS011;21637;53.352;-6.356;2024-03-02T14:07:27;1.65;;;0.80;;
35530;SDS011;21637;53.352;-6.356;2024-03-02T14:09:53;1.45;;;0.80;;
35530;SDS011;21637;53.352;-6.356;2024-03-02T14:12:18;0.98;;;0.60;;
35530;SDS011;21637;53.352;-6.356;2024-03-02T14:14:44;1.38;;;0.80;;
35530;SDS011;21637;53.352;-6.356;2024-03-02T14:17:10;1.30;;;0.70;;
35530;SDS011;21637;53.352;-6.356;2024-03-02T14:19:39;4.18;;;1.00;;
35530;SDS011;21637;53.352;-6.356;2024-03-02T14:22:05;2.20;;;0.60;;
35530;SDS011;21637;53.352;-6.356;2024-03-02T14:24:31;2.28;;;0.50;;
35530;SDS011;21637;53.352;-6.356;2024-03-02T14:26:57;3.92;;;0.95;;
35530;SDS011;21637;53.352;-6.356;2024-03-02T14:29:24;4.40;;;0.80;;
35530;SDS011;21637;53.352;-6.356;2024-03-02T14:31:50;4.30;;;0.70;;
35530;SDS011;21637;53.352;-6.356;2024-03-02T14:34:15;3.42;;;0.70;;